Latest Coastal Weather Observations for Cerberus

IDV60701

Issued at 9:05 pm EST Saturday 26 July 2014 (issued every 10 minutes, with the page automatically refreshed every 10 minutes)

About coastal observations | Map of coastal stations | Coastal observations for VIC | Marine services | Other Formats
Station Details ID: 086361 Name: CERBERUS Lat: -38.36 Lon: 145.18 Height: 12.69 m
Data from the previous 72 hours. | See also: Recent months at Cerberus
Date/Time
EST
Temp

°C
Wind Pressure Rain
since 9am
mm
Weather Cloud Vis
km
Sea
Height
m
Swell
Dir
 
Speed
knots
Gust
knots
hPa Trend Height
m
Period
s
Dir
26/09:00pm 12.0 WNW 5 8 1024.6 - 0.0 - - - - - - -
26/08:30pm 11.9 WNW 6 9 1024.3 - 0.0 - - - - - - -
26/08:00pm 11.7 W 5 8 1024.1 - 0.0 - - - - - - -
26/07:30pm 11.5 WNW 6 8 1024.0 - 0.0 - - - - - - -
26/07:00pm 11.7 WNW 5 8 1023.8 - 0.0 - - - - - - -
26/06:30pm 12.1 WNW 7 10 1023.6 - 0.0 - - - - - - -
26/06:00pm 12.2 WNW 7 10 1023.3 - 0.0 - - - - - - -
26/05:30pm 12.2 WNW 6 9 1023.0 - 0.0 - - - - - - -
26/05:00pm 12.6 WNW 7 10 1022.8 - 0.0 - - - - - - -
26/04:30pm 12.8 WNW 8 12 1022.6 - 0.0 - - - - - - -
26/04:00pm 13.0 WNW 8 12 1022.4 - 0.0 - - - - - - -
26/03:30pm 13.2 WNW 9 15 1022.1 - 0.0 - - - - - - -
26/03:00pm 13.3 W 9 15 1021.9 - 0.0 - - - - - - -
26/02:30pm 13.3 WNW 10 16 1021.7 - 0.0 - - - - - - -
26/02:00pm 13.0 WNW 9 14 1021.5 - 0.0 - - - - - - -
26/01:30pm 12.9 WNW 10 15 1021.5 - 0.0 - - - - - - -
26/01:00pm 13.4 WNW 11 15 1021.6 - 0.0 - - - - - - -
26/12:30pm 13.7 WNW 10 16 1021.7 - 0.0 - - - - - - -
26/12:00pm 13.1 WNW 11 15 1022.0 - 0.0 - - - - - - -
26/11:30am 12.6 WNW 11 17 1022.1 - 0.0 - - - - - - -
26/11:00am 12.5 WNW 9 14 1022.3 - 0.0 - - - - - - -
26/10:30am 12.4 WNW 10 17 1022.3 - 0.0 - - - - - - -
26/10:00am 12.7 WNW 9 13 1022.3 - 0.0 - - - - - - -
26/09:30am 12.3 WNW 10 16 1022.2 - 0.0 - - - - - - -
26/09:00am 12.0 WNW 9 14 1021.9 - 0.4 - - - - - - -
26/08:30am 11.7 NW 8 14 1021.6 - 0.4 - - - - - - -
26/08:00am 11.6 NW 8 12 1021.4 - 0.4 - - - - - - -
26/07:30am 11.4 NW 7 11 1021.0 - 0.4 - - - - - - -
26/07:00am 11.4 NW 8 13 1020.8 - 0.4 - - - - - - -
26/06:30am 11.2 NNW 6 10 1020.4 - 0.4 - - - - - - -
26/06:00am 10.9 NNW 6 8 1020.0 - 0.4 - - - - - - -
26/05:30am 10.9 NNW 6 10 1019.8 - 0.4 - - - - - - -
26/05:00am 11.1 NW 9 13 1019.7 - 0.4 - - - - - - -
26/04:30am 11.7 NW 6 10 1019.5 - 0.2 - - - - - - -
26/04:00am 11.4 NNW 6 10 1019.3 - 0.0 - - - - - - -
26/03:30am 11.9 NW 7 10 1019.3 - 0.0 - - - - - - -
26/03:00am 12.2 NNW 7 11 1019.3 - 0.0 - - - - - - -
26/02:30am 12.1 NW 8 14 1019.2 - 0.0 - - - - - - -
26/02:00am 12.1 NNW 7 11 1019.2 - 0.0 - - - - - - -
26/01:30am 12.0 NNW 7 14 1019.1 - 0.0 - - - - - - -
26/01:00am 11.8 N 5 8 1019.0 - 0.0 - - - - - - -
26/12:30am 12.1 N 3 6 1019.1 - 0.0 - - - - - - -
26/12:00am 11.7 N 2 4 1019.0 - 0.0 - - - - - - -
 
Date/Time
EST
Temp

°C
Wind Pressure Rain
since 9am
mm
Weather Cloud Vis
km
Sea
Height
m
Swell
Dir
 
Speed
knots
Gust
knots
hPa Trend Height
m
Period
s
Dir
25/11:30pm 11.7 N 4 6 1018.9 - 0.0 - - - - - - -
25/11:00pm 11.6 N 4 7 1019.0 - 0.0 - - - - - - -
25/10:30pm 11.2 NNE 3 4 1019.0 - 0.0 - - - - - - -
25/10:00pm 11.6 N 3 5 1018.9 - 0.0 - - - - - - -
25/09:30pm 11.7 N 3 5 1018.6 - 0.0 - - - - - - -
25/09:00pm 11.9 N 3 4 1018.6 - 0.0 - - - - - - -
25/08:30pm 11.9 N 3 5 1018.3 - 0.0 - - - - - - -
25/08:00pm 12.3 N 3 5 1018.1 - 0.0 - - - - - - -
25/07:30pm 12.9 N 4 7 1017.7 - 0.0 - - - - - - -
25/07:00pm 13.2 N 5 9 1017.4 - 0.0 - - - - - - -
25/06:30pm 13.3 NNW 5 11 1017.2 - 0.0 - - - - - - -
25/06:00pm 13.5 N 4 7 1016.8 - 0.0 - - - - - - -
25/05:30pm 13.5 N 4 7 1016.5 - 0.0 - - - - - - -
25/05:00pm 13.6 N 5 9 1016.2 - 0.0 - - - - - - -
25/04:30pm 13.6 N 5 10 1016.0 - 0.0 - - - - - - -
25/04:00pm 13.9 N 4 9 1015.7 - 0.0 - - - - - - -
25/03:30pm 13.7 N 9 17 1015.5 - 0.0 - - - - - - -
25/03:00pm 14.6 N 7 12 1015.2 - 0.0 - - - - - - -
25/02:30pm 14.8 N 8 15 1015.0 - 0.0 - - - - - - -
25/02:00pm 14.4 N 6 15 1014.9 - 0.0 - - - - - - -
25/01:30pm 14.3 N 9 17 1015.1 - 0.0 - - - - - - -
25/01:00pm 14.4 N 8 14 1015.2 - 0.0 - - - - - - -
25/12:30pm 14.5 NNW 7 14 1015.4 - 0.0 - - - - - - -
25/12:00pm 14.4 N 7 12 1015.4 - 0.0 - - - - - - -
25/11:30am 14.0 N 11 19 1015.7 - 0.0 - - - - - - -
25/11:00am 13.8 N 10 15 1015.7 - 0.0 - - - - - - -
25/10:30am 13.6 N 10 18 1015.8 - 0.0 - - - - - - -
25/10:00am 12.8 N 5 8 1015.8 - 0.0 - - - - - - -
25/09:30am 12.6 N 7 14 1015.8 - 0.0 - - - - - - -
25/09:00am 12.5 N 5 11 1015.5 - 1.6 - - - - - - -
25/08:30am 11.6 N 5 8 1015.3 - 1.6 - - - - - - -
25/08:00am 10.7 N 4 7 1015.1 - 1.6 - - - - - - -
25/07:30am 9.9 N 4 6 1014.8 - 1.6 - - - - - - -
25/07:00am 9.3 NNE 3 5 1014.6 - 1.6 - - - - - - -
25/06:30am 8.9 NNE 3 5 1014.3 - 1.6 - - - - - - -
25/06:00am 8.4 N 2 4 1013.9 - 1.6 Recent precip. - - - - - -
25/05:30am 8.7 N 2 3 1013.7 - 1.2 - - - - - - -
25/05:00am 9.1 N 1 2 1013.6 - 1.2 - - - - - - -
25/04:30am 8.8 N 3 5 1013.6 - 1.2 - - - - - - -
25/04:00am 8.0 NNE 2 3 1013.5 - 1.2 - - - - - - -
25/03:30am 7.6 NNE 1 2 1013.3 - 1.2 - - - - - - -
25/03:00am 8.0 NNE 1 2 1013.4 - 1.2 - - - - - - -
25/02:30am 8.5 NNE 2 4 1013.3 - 1.2 - - - - - - -
25/02:00am 8.6 NNE 3 4 1013.3 - 1.2 - - - - - - -
25/01:30am 8.6 NE 2 4 1013.1 - 1.2 - - - - - - -
25/01:00am 9.2 NE 3 5 1013.1 - 1.2 - - - - - - -
25/12:30am 9.1 NNE 3 5 1013.2 - 1.2 - - - - - - -
25/12:00am 9.1 NNE 4 7 1013.4 - 1.2 - - - - - - -
 
Date/Time
EST
Temp

°C
Wind Pressure Rain
since 9am
mm
Weather Cloud Vis
km
Sea
Height
m
Swell
Dir
 
Speed
knots
Gust
knots
hPa Trend Height
m
Period
s
Dir
24/11:30pm 9.3 NNE 3 5 1013.8 - 1.2 - - - - - - -
24/11:00pm 9.2 NNE 3 5 1013.9 - 1.2 - - - - - - -
24/10:30pm 9.3 NNE 3 4 1013.9 - 1.2 - - - - - - -
24/10:00pm 9.2 NNE 2 4 1014.1 - 1.2 - - - - - - -
24/09:30pm 9.3 NE 3 4 1014.0 - 1.0 - - - - - - -
24/09:00pm 9.3 NNE 2 5 1014.2 - 1.0 - - - - - - -
24/08:30pm 9.4 NNE 2 3 1014.1 - 1.0 - - - - - - -
24/08:00pm 9.4 NE 3 6 1013.9 - 1.0 - - - - - - -
24/07:30pm 9.0 NE 2 3 1013.9 - 1.0 - - - - - - -
24/07:00pm 9.4 NNE 3 4 1013.9 - 1.0 - - - - - - -
24/06:30pm 10.0 NE 2 4 1013.7 - 1.0 - - - - - - -
24/06:00pm 10.2 ENE 3 5 1013.6 - 1.0 - - - - - - -
24/05:30pm 10.6 NE 4 6 1013.8 - 1.0 - - - - - - -
24/05:00pm 11.0 NE 3 5 1013.9 - 1.0 - - - - - - -
24/04:30pm 11.2 ENE 5 9 1013.8 - 1.0 - - - - - - -
24/04:00pm 11.4 NNE 4 8 1013.8 - 1.0 - - - - - - -
24/03:30pm 11.6 NNE 4 6 1013.7 - 1.0 - - - - - - -
24/03:00pm 11.0 ENE 2 3 1013.5 - 1.0 - - - - - - -
24/02:30pm 10.9 ENE 3 4 1013.4 - 1.0 - - - - - - -
24/02:00pm 10.6 NE 2 4 1014.0 - 1.0 - - - - - - -
24/01:30pm 9.6 ENE 5 8 1014.3 - 1.0 - - - - - - -
24/01:00pm 8.6 ENE 3 5 1015.0 - 1.0 - - - - - - -
24/12:30pm 8.3 NE 2 4 1015.9 - 0.8 - - - - - - -
24/12:00pm 8.1 NE 2 3 1016.5 - 0.6 Rain - - - - - -
24/11:30am 8.0 NE 2 3 1016.6 - 0.2 - - - - - - -
24/11:00am 7.8 NE 2 3 1016.9 - 0.0 - - - - - - -
24/10:30am 7.8 NE 2 3 1017.0 - 0.0 - - - - - - -
24/10:00am 7.8 NE 2 3 1017.1 - 0.0 - - - - - - -
24/09:30am 7.8 NE 2 3 1016.9 - 0.0 - - - - - - -
24/09:00am 7.0 CALM 0 0 1016.8 - 0.0 - - - - - - -
24/08:30am 6.3 CALM 0 0 1016.8 - 0.0 - - - - - - -
24/08:00am 5.9 NE 1 2 1016.9 - 0.0 - - - - - - -
24/07:30am 5.8 NE 2 3 1016.9 - 0.0 - - - - - - -
24/07:00am 5.8 NE 2 4 1017.0 - 0.0 - - - - - - -
24/06:30am 5.6 NE 2 4 1017.1 - 0.0 - - - - - - -
24/06:00am 4.7 NE 3 4 1017.1 - 0.0 - - - - - - -
24/05:30am 3.1 N 1 2 1017.2 - 0.0 - - - - - - -
24/05:00am 3.2 N 1 2 1017.2 - 0.0 - - - - - - -
24/04:30am 3.7 CALM 0 2 1017.2 - 0.0 - - - - - - -
24/04:00am 4.0 CALM 0 0 1017.3 - 0.0 - - - - - - -
24/03:30am 5.3 N 1 1 1017.3 - 0.0 - - - - - - -
24/03:00am 5.9 N 1 4 1017.5 - 0.0 - - - - - - -
24/02:30am 6.6 N 2 3 1017.5 - 0.0 - - - - - - -
24/02:00am 6.5 NE 2 5 1017.6 - 0.0 - - - - - - -
24/01:30am 6.3 NE 3 5 1017.7 - 0.0 - - - - - - -
24/01:00am 5.0 N 2 3 1017.9 - 0.0 - - - - - - -
24/12:30am 5.3 N 1 2 1018.2 - 0.0 - - - - - - -
24/12:00am 3.1 CALM 0 2 1018.7 - 0.0 - - - - - - -
 
Date/Time
EST
Temp

°C
Wind Pressure Rain
since 9am
mm
Weather Cloud Vis
km
Sea
Height
m
Swell
Dir
 
Speed
knots
Gust
knots
hPa Trend Height
m
Period
s
Dir
23/11:30pm 3.2 NNW 2 3 1018.9 - 0.0 - - - - - - -
23/11:00pm 3.8 CALM 0 0 1019.2 - 0.0 - - - - - - -
23/10:30pm 4.2 NNW 1 2 1019.6 - 0.0 - - - - - - -
23/10:00pm 4.0 NNW 2 3 1019.8 - 0.0 - - - - - - -
23/09:30pm 3.8 NNW 1 2 1020.0 - 0.0 - - - - - - -

Other Formats:

Comma delimited format used in spreadsheet applications
http://www.bom.gov.au/fwo/IDV60701/IDV60701.94898.axf

JavaScript Object Notation format (JSON) in row-major order
http://www.bom.gov.au/fwo/IDV60701/IDV60701.94898.json